Evanston Uinta County Burns Field
KEVW : now visible

Airfield :











YOU CAN JOIN US ON...

 
LOGIN :

Register | Disclaimer

   EN    FR    IT 

 









Legend :    VFR   Marginal VFR   IFR   Intensive IFR   Very Intensive IFR
Visi :
Ceiling :
>= 8 km
>= 3000ft
5 to 8 km
1000 to 3000 ft
1500m to 5 km
500 to 1000 ft
800 to 1500m
200 to 500 ft
< 800m
< 200 ft
Symbols :   Thunderstorms  Fog  Heavy snow  Heavy precipitations  Wind > 20 kt






- Airport Elevation : 7143 ft


KEVW - Evanston Uinta County Burns Field

CURRENT METAR :
  • 080653Z AUTO 19005KT 10SM SCT032 BKN041 00/M03 A2997 RMK AO2 SLP135 T00001028 400441050

EXPIRED METARs :
  • 080553Z AUTO 19008KT 10SM BKN035 00/M03 A2998 RMK AO2 SLP142 T00001028 10028 21006 58014
  • 080453Z AUTO 19008KT 10SM CLR M01/M03 A3000 RMK AO2 SLP156 T10061028

TAF KEVW
Valid from the 08 at 06:00 until the 09 at 06:00 UTC


080526Z 0806/0906 19008KT P6SM SCT040 BKN080
FM081000 22008KT P6SM VCSH SCT020 BKN040
FM081400 25011KT 1SM -SN BR BKN007 BKN015
FM082300 25012G20KT P6SM VCSH SCT020 BKN040



MET'MAP, your aeronautical weather chart ! - Copyright ORBIFLY December 2007 - Disclaimer

ORBIFLY MET'MAP TEAM :

Programming & Development : Alexandra Zaïnal
Concept & original design : Baudouin d'Aumeries
Assistance for programming : Marc-Olivier Méhu
Technical & hardware support : Manuel Goepfert

Contact : metmap@orbifly.com




SOURCES & CREDITS :

   NOAA       Earth
Advisory